• Join FlightAware (Why Join?)
  • Login
  • US Flag 
08:10PM EDT


 

Airport Tracker/Info


-or-


 

Live Flight TrackerFlight Track Log ✈ UAL1197 ✈ 02-Jun-2013 ✈ KIAH - KEWR

Flight Track Log - Related Links

Times and Time Zones

All times are in EDT time to prevent confusion due to time zone crossing. See the UAL1197 flight status page for this flight to view local times or setup timezone preferences in your user account.

Time Position Orientation Groundspeed Altitude Reporting Facility
EDT Latitude Longitude Course Direction KTS MPH feet Rate Location/Type
10:30PM 29.9532 -95.3405 281° West 188 216 700  Level FlightAware ADS-B
10:30PM 29.9503 -95.3383 147° Southeast 186 214 900 2,520 Climbing FlightAware ADS-B
10:30PM 29.9484 -95.3363 138° Southeast 185 213 1,000 1,980 Climbing FlightAware ADS-B
10:30PM 29.9453 -95.3319 129° Southeast 185 213 1,200 1,980 Climbing FlightAware ADS-B
10:30PM 29.9442 -95.3291 114° Southeast 186 214 1,300 960 Climbing FlightAware ADS-B
10:30PM 29.9434 -95.3263 108° East 188 216 1,300 960 Level FlightAware ADS-B
10:30PM 29.9430 -95.3231 98° East 189 217 1,400 1,680 Climbing FlightAware ADS-B
10:30PM 29.9431 -95.3192 88° East 190 219 1,500 1,680 Climbing FlightAware ADS-B
10:30PM 29.9437 -95.3159 78° East 192 221 1,600 1,680 Climbing FlightAware ADS-B
10:30PM 29.9448 -95.3127 68° East 193 222 1,700 1,680 Climbing FlightAware ADS-B
10:31PM 29.9464 -95.3098 58° Northeast 193 222 1,800 1,680 Climbing FlightAware ADS-B
10:31PM 29.9491 -95.3068 44° Northeast 193 222 1,900 1,320 Climbing FlightAware ADS-B
10:31PM 29.9527 -95.3042 32° Northeast 195 224 2,000 1,500 Climbing FlightAware ADS-B
10:31PM 29.9593 -95.3018 17° North 199 229 2,200 1,800 Climbing FlightAware ADS-B
10:31PM 29.9739 -95.2977 14° North 213 245 2,700 2,220 Climbing FlightAware ADS-B
10:31PM 29.9894 -95.2933 14° North 220 253 3,400 2,280 Climbing FlightAware ADS-B
10:32PM 30.0403 -95.2789 14° North 258 297 5,100 2,520 Climbing FlightAware ADS-B
10:33PM 30.0759 -95.2682 15° North 257 296 6,700 2,880 Climbing FlightAware ADS-B
10:33PM 30.0963 -95.2615 18° North 259 298 7,500 2,460 Climbing FlightAware ADS-B
10:33PM 30.1082 -95.2551 28° Northeast 266 306 7,900 1,980 Climbing FlightAware ADS-B
10:33PM 30.1160 -95.2494 32° Northeast 273 314 8,100 1,980 Climbing FlightAware ADS-B
10:33PM 30.1207 -95.2454 36° Northeast 277 319 8,300 1,800 Climbing FlightAware ADS-B
10:36PM 30.2949 -95.0979 36° Northeast 362 417 12,700 1,860 Climbing FlightAware ADS-B
10:36PM 30.3359 -95.0632 36° Northeast 363 418 13,900 2,280 Climbing FlightAware ADS-B
10:37PM 30.3773 -95.0283 36° Northeast 369 425 15,000 1,920 Climbing FlightAware ADS-B
10:38PM 30.4509 -94.9700 33° Northeast 383 441 16,500 1,620 Climbing FlightAware ADS-B
10:39PM 30.5926 -94.8617 33° Northeast 413 475 18,900 1,620 Climbing FlightAware ADS-B
10:40PM 30.6923 -94.7851 33° Northeast 426 490 20,700 1,800 Climbing FlightAware ADS-B
10:41PM 30.7422 -94.7466 34° Northeast 425 489 21,700 1,920 Climbing FlightAware ADS-B
10:41PM 30.7912 -94.7088 34° Northeast 425 489 22,700 1,560 Climbing FlightAware ADS-B
10:42PM 30.9022 -94.6233 33° Northeast 441 507 24,200 1,260 Climbing FlightAware ADS-B
10:43PM 31.0098 -94.5397 34° Northeast 456 525 25,400 1,200 Climbing FlightAware ADS-B
10:44PM 31.0928 -94.4753 34° Northeast 457 526 26,500 1,200 Climbing FlightAware ADS-B
10:45PM 31.2290 -94.3694 34° Northeast 466 536 28,000 1,020 Climbing FlightAware ADS-B
10:46PM 31.2884 -94.3231 34° Northeast 476 548 28,400 840 Climbing FlightAware ADS-B
10:48PM 31.4691 -94.1815 34° Northeast 490 564 29,900 900 Climbing FlightAware ADS-B
10:48PM 31.4994 -94.1542 38° Northeast 493 567 30,200 1,140 Climbing FlightAware ADS-B
10:48PM 31.5230 -94.1285 43° Northeast 494 568 30,500 1,080 Climbing FlightAware ADS-B
10:48PM 31.5501 -94.0934 48° Northeast 498 573 30,800 960 Climbing FlightAware ADS-B
10:49PM 31.6258 -93.9822 51° Northeast 499 574 31,700 1,020 Climbing FlightAware ADS-B
10:50PM 31.6770 -93.9069 51° Northeast 501 577 32,300 1,020 Climbing FlightAware ADS-B
10:50PM 31.7346 -93.8219 51° Northeast 502 578 33,000 720 Climbing FlightAware ADS-B
10:53PM 31.9134 -93.5570 51° Northeast 515 593 34,300 600 Climbing FlightAware ADS-B
10:53PM 31.9644 -93.4881 51° Northeast 515 593 34,700 480 Climbing Fort Worth Center
10:54PM 32.0347 -93.3778 53° Northeast 514 592 35,000 120 Climbing Houston Center
10:55PM 32.1244 -93.2439 52° Northeast 517 595 35,000  Level Houston Center
10:56PM 32.2131 -93.1103 52° Northeast 517 595 35,000  Level Houston Center
10:57PM 32.3261 -92.9442 51° Northeast 510 587 35,000  Level Fort Worth Center
10:58PM 32.4133 -92.8142 52° Northeast 505 581 35,000  Level Fort Worth Center
10:59PM 32.4939 -92.6822 54° Northeast 530 610 35,000  Level Fort Worth Center
11:02PM 32.7958 -92.2306 51° Northeast 526 605 35,000  Level Memphis Center
11:03PM 32.8811 -92.0939 53° Northeast 539 620 35,000  Level Memphis Center
11:04PM 32.9667 -91.9569 53° Northeast 525 604 35,000  Level Memphis Center
11:05PM 33.0539 -91.8219 52° Northeast 525 604 35,000  Level Memphis Center
11:06PM 33.1431 -91.6847 52° Northeast 531 611 35,000  Level Memphis Center
11:07PM 33.2342 -91.5419 53° Northeast 531 611 35,000  Level Memphis Center
11:08PM 33.3231 -91.4064 52° Northeast 536 617 35,000  Level Memphis Center
11:09PM 33.4097 -91.2681 53° Northeast 530 610 35,000  Level Memphis Center
11:10PM 33.4983 -91.1319 52° Northeast 544 626 35,000  Level Memphis Center
11:11PM 33.5847 -90.9906 54° Northeast 538 619 35,000  Level Memphis Center
11:12PM 33.6750 -90.8514 52° Northeast 525 604 35,000  Level Memphis Center
11:13PM 33.7631 -90.7119 53° Northeast 525 604 35,000  Level Memphis Center
11:14PM 33.8492 -90.5697 54° Northeast 525 604 35,000  Level Memphis Center
11:15PM 33.9369 -90.4247 54° Northeast 531 611 35,000  Level Memphis Center
11:16PM 34.0244 -90.2844 53° Northeast 526 605 35,000  Level Memphis Center
11:17PM 34.1100 -90.1414 54° Northeast 526 605 35,000  Level Memphis Center
11:18PM 34.1911 -90.0131 53° Northeast 526 605 35,000  Level Memphis Center
11:19PM 34.2781 -89.8694 54° Northeast 526 605 35,000  Level Memphis Center
11:20PM 34.3653 -89.7231 54° Northeast 526 605 35,000  Level Memphis Center
11:21PM 34.4519 -89.5789 54° Northeast 526 605 35,000  Level Memphis Center
11:22PM 34.5386 -89.4319 54° Northeast 526 605 35,000  Level Memphis Center
11:23PM 34.6272 -89.2894 53° Northeast 521 600 35,000  Level Memphis Center
11:24PM 34.7156 -89.1419 54° Northeast 526 605 35,000  Level Memphis Center
11:25PM 34.8036 -88.9964 54° Northeast 526 605 35,000  Level Memphis Center
11:31PM 35.3140 -88.1330 54° Northeast 539 620 35,000  Level FlightAware
11:32PM 35.3830 -88.0120 55° Northeast 540 621 35,000  Level FlightAware
11:33PM 35.4400 -87.9160 54° Northeast 540 621 35,000  Level FlightAware
11:33PM 35.5030 -87.8050 55° Northeast 540 621 35,000  Level FlightAware
11:34PM 35.5600 -87.7060 55° Northeast 541 623 35,000  Level FlightAware
11:35PM 35.6260 -87.5910 55° Northeast 540 621 35,000  Level FlightAware
11:35PM 35.6830 -87.4910 55° Northeast 540 621 35,000  Level FlightAware
11:36PM 35.7430 -87.3850 55° Northeast 539 620 35,000  Level FlightAware
11:37PM 35.8070 -87.2720 55° Northeast 539 620 35,000  Level FlightAware
11:38PM 35.8660 -87.1680 55° Northeast 538 619 35,000  Level FlightAware
11:38PM 35.9280 -87.0570 55° Northeast 536 617 35,000  Level FlightAware
11:39PM 35.9641 -86.9942 55° Northeast 535 616 35,000  Level FlightAware ADS-B
11:39PM 36.0089 -86.9144 55° Northeast 536 617 35,000  Level FlightAware ADS-B
11:40PM 36.0512 -86.8389 55° Northeast 534 615 35,000  Level FlightAware ADS-B
11:40PM 36.0935 -86.7631 55° Northeast 534 615 35,000  Level FlightAware ADS-B
11:41PM 36.1361 -86.6791 58° Northeast 533 613 35,000  Level FlightAware ADS-B
11:41PM 36.1528 -86.6358 64° Northeast 533 613 35,000  Level FlightAware ADS-B
11:42PM 36.1821 -86.5458 68° East 532 612 35,000  Level FlightAware ADS-B
11:42PM 36.2114 -86.4552 68° East 531 611 35,000  Level FlightAware ADS-B
11:43PM 36.2386 -86.3709 68° East 528 608 35,000  Level FlightAware ADS-B
11:43PM 36.2663 -86.2849 68° East 527 606 35,000  Level FlightAware ADS-B
11:44PM 36.2936 -86.2000 68° East 526 605 35,000  Level FlightAware ADS-B
11:44PM 36.3209 -86.1144 68° East 526 605 35,000  Level FlightAware ADS-B
11:45PM 36.3790 -85.9310 68° East 525 604 35,000  Level FlightAware
11:45PM 36.3883 -85.9030 68° East 526 605 35,000  Level FlightAware ADS-B
11:46PM 36.4162 -85.8149 68° East 525 604 35,000  Level FlightAware ADS-B
11:46PM 36.4430 -85.7298 69° East 525 604 35,000  Level FlightAware ADS-B
11:47PM 36.4697 -85.6450 69° East 527 606 35,000  Level FlightAware ADS-B
11:47PM 36.4963 -85.5601 69° East 526 605 35,000  Level FlightAware ADS-B
11:48PM 36.5232 -85.4744 69° East 528 608 35,000  Level FlightAware ADS-B
11:48PM 36.5499 -85.3888 69° East 528 608 35,000  Level FlightAware ADS-B
11:49PM 36.5766 -85.3029 69° East 530 610 35,000  Level FlightAware ADS-B
11:50PM 36.6103 -85.1939 69° East 531 611 35,000  Level FlightAware ADS-B
11:50PM 36.6370 -85.1073 69° East 533 613 35,000  Level FlightAware ADS-B
11:51PM 36.6635 -85.0208 69° East 532 612 35,000  Level FlightAware ADS-B
11:51PM 36.6941 -84.9210 69° East 529 609 35,000  Level FlightAware ADS-B
11:52PM 36.7220 -84.8302 69° East 529 609 35,000  Level FlightAware ADS-B
11:52PM 36.7534 -84.7270 69° East 530 610 35,000  Level FlightAware ADS-B
11:53PM 36.7800 -84.6394 69° East 531 611 35,000  Level FlightAware ADS-B
11:53PM 36.8064 -84.5522 69° East 531 611 35,000  Level FlightAware ADS-B
11:54PM 36.8336 -84.4622 69° East 530 610 35,000  Level FlightAware ADS-B
11:54PM 36.8595 -84.3763 69° East 530 610 35,000  Level FlightAware ADS-B
11:55PM 36.8853 -84.2906 69° East 530 610 35,000  Level FlightAware ADS-B
11:55PM 36.9110 -84.2042 70° East 529 609 35,000  Level FlightAware ADS-B
11:56PM 36.9368 -84.1179 69° East 528 608 35,000  Level FlightAware ADS-B
11:56PM 36.9626 -84.0308 70° East 528 608 35,000  Level FlightAware ADS-B
11:57PM 36.9887 -83.9428 70° East 527 606 35,000  Level FlightAware ADS-B
11:58PM 37.0213 -83.8326 70° East 526 605 35,000  Level FlightAware ADS-B
11:58PM 37.0473 -83.7436 70° East 525 604 35,000  Level FlightAware ADS-B
11:59PM 37.0728 -83.6569 70° East 525 604 35,000  Level FlightAware ADS-B
11:59PM 37.0988 -83.5679 70° East 524 603 35,000  Level FlightAware ADS-B
12:00AM 37.1270 -83.4710 70° East 523 602 35,000  Level FlightAware ADS-B
12:00AM 37.1519 -83.3855 70° East 522 601 35,000  Level FlightAware ADS-B
12:01AM 37.1774 -83.2972 70° East 521 600 35,000  Level FlightAware ADS-B
12:01AM 37.2023 -83.2107 70° East 521 600 35,000  Level FlightAware ADS-B
12:02AM 37.2278 -83.1217 70° East 521 600 35,000  Level FlightAware ADS-B
12:02AM 37.2529 -83.0344 70° East 520 598 35,000  Level FlightAware ADS-B
12:03AM 37.2772 -82.9493 70° East 520 598 35,000  Level FlightAware ADS-B
12:03AM 37.3017 -82.8630 70° East 523 602 35,000  Level FlightAware ADS-B
12:04AM 37.3269 -82.7746 70° East 522 601 35,000  Level FlightAware ADS-B
12:04AM 37.3553 -82.6739 70° East 522 601 35,000  Level FlightAware ADS-B
12:05AM 37.3914 -82.5457 70° East 522 601 35,000  Level FlightAware ADS-B
12:06AM 37.4344 -82.3927 70° East 523 602 35,000  Level FlightAware ADS-B
12:07AM 37.4585 -82.3061 71° East 523 602 35,000  Level FlightAware ADS-B
12:07AM 37.4832 -82.2171 71° East 524 603 35,000  Level FlightAware ADS-B
12:08AM 37.5199 -82.0842 71° East 526 605 35,000  Level FlightAware ADS-B
12:08AM 37.5455 -81.9911 71° East 527 606 35,000  Level FlightAware ADS-B
12:09AM 37.5716 -81.8959 71° East 528 608 35,000  Level FlightAware ADS-B
12:09AM 37.5954 -81.8088 71° East 529 609 35,000  Level FlightAware ADS-B
12:10AM 37.6198 -81.7198 71° East 529 609 35,000  Level FlightAware ADS-B
12:10AM 37.6487 -81.6133 71° East 528 608 35,000  Level FlightAware ADS-B
12:11AM 37.6723 -81.5262 71° East 529 609 35,000  Level FlightAware ADS-B
12:12AM 37.6979 -81.4313 71° East 530 610 35,000  Level FlightAware ADS-B
12:12AM 37.7245 -81.3324 71° East 531 611 35,000  Level FlightAware ADS-B
12:13AM 37.7480 -81.2460 71° East 530 610 35,000  Level FlightAware
12:13AM 37.7642 -81.1835 72° East 531 611 35,000  Level FlightAware ADS-B
12:14AM 37.7829 -81.0774 77° East 527 606 35,000  Level FlightAware ADS-B
12:14AM 37.7873 -81.0187 85° East 527 606 35,000  Level FlightAware ADS-B
12:15AM 37.8020 -80.8230 85° East 527 606 35,000  Level FlightAware
12:16AM 37.8260 -80.7030 76° East 530 610 35,000  Level FlightAware
12:16AM 37.8580 -80.5720 73° East 530 610 35,000  Level FlightAware
12:17AM 37.8727 -80.5106 73° East 529 609 35,000  Level FlightAware ADS-B
12:18AM 37.9170 -80.3240 73° East 528 608 35,000  Level FlightAware
12:18AM 37.9450 -80.2060 73° East 528 608 35,000  Level FlightAware
12:19AM 37.9700 -80.1030 73° East 529 609 35,000  Level FlightAware
12:20AM 38.0140 -79.9170 73° East 529 609 35,000  Level FlightAware
12:21AM 38.0400 -79.8010 74° East 529 609 35,000  Level FlightAware
12:21AM 38.0720 -79.6640 73° East 530 610 35,000  Level FlightAware
12:22AM 38.0990 -79.5460 74° East 530 610 35,000  Level FlightAware
12:23AM 38.1360 -79.3850 74° East 529 609 35,000  Level FlightAware
12:24AM 38.1680 -79.2470 74° East 528 608 35,000  Level FlightAware
12:24AM 38.1940 -79.1290 74° East 528 608 35,000  Level FlightAware
12:25AM 38.2220 -79.0060 74° East 528 608 35,000  Level FlightAware
12:26AM 38.2500 -78.8850 74° East 529 609 35,000  Level FlightAware
12:27AM 38.2810 -78.7450 74° East 529 609 35,000  Level FlightAware
12:27AM 38.3100 -78.6120 74° East 530 610 35,000  Level FlightAware
12:28AM 38.3360 -78.4940 74° East 530 610 35,000  Level FlightAware
12:29AM 38.3630 -78.3730 74° East 532 612 35,000  Level FlightAware
12:29AM 38.3890 -78.2530 75° East 532 612 35,000  Level FlightAware
12:30AM 38.4046 -78.1806 75° East 532 612 35,000  Level FlightAware ADS-B
12:30AM 38.4249 -78.0867 75° East 532 612 35,000  Level FlightAware ADS-B
12:31AM 38.4468 -77.9856 75° East 533 613 35,000  Level FlightAware ADS-B
12:31AM 38.4664 -77.8941 75° East 534 615 35,000  Level FlightAware ADS-B
12:32AM 38.4861 -77.8015 75° East 533 613 35,000  Level FlightAware ADS-B
12:32AM 38.5076 -77.7003 75° East 533 613 35,000  Level FlightAware ADS-B
12:33AM 38.5274 -77.6065 75° East 532 612 35,000  Level FlightAware ADS-B
12:33AM 38.5473 -77.5118 75° East 531 611 35,000  Level FlightAware ADS-B
12:34AM 38.5664 -77.4208 75° East 531 611 35,000  Level FlightAware ADS-B
12:34AM 38.5855 -77.3289 75° East 530 610 35,000  Level FlightAware ADS-B
12:35AM 38.6045 -77.2382 75° East 529 609 35,000  Level FlightAware ADS-B
12:35AM 38.6220 -77.1548 75° East 528 608 35,000  Level FlightAware ADS-B
12:36AM 38.6304 -77.1234 71° East 527 606 35,000  Level FlightAware ADS-B
12:36AM 38.6478 -77.0754 65° Northeast 525 604 35,000  Level FlightAware ADS-B
12:36AM 38.6636 -77.0419 59° Northeast 521 600 35,000  Level FlightAware ADS-B
12:36AM 38.6836 -77.0073 53° Northeast 519 597 35,000  Level FlightAware ADS-B
12:37AM 38.7308 -76.9345 50° Northeast 518 596 35,000  Level FlightAware ADS-B
12:37AM 38.7782 -76.8613 50° Northeast 517 595 35,000  Level FlightAware ADS-B
12:38AM 38.8247 -76.7890 50° Northeast 515 593 35,000  Level FlightAware ADS-B
12:38AM 38.8705 -76.7176 51° Northeast 516 594 35,000  Level FlightAware ADS-B
12:39AM 38.9160 -76.6465 51° Northeast 516 594 35,000  Level FlightAware ADS-B
12:39AM 38.9614 -76.5753 51° Northeast 515 593 35,000 -540 Level FlightAware ADS-B
12:40AM 39.0073 -76.5032 51° Northeast 515 593 34,500 -2,040 Descending FlightAware ADS-B
12:40AM 39.0527 -76.4318 51° Northeast 517 595 33,000 -3,060 Descending FlightAware ADS-B
12:41AM 39.0994 -76.3584 51° Northeast 521 600 31,400 -2,880 Descending FlightAware ADS-B
12:41AM 39.1450 -76.2861 51° Northeast 514 592 30,100 -2,520 Descending FlightAware ADS-B
12:42AM 39.1897 -76.2152 51° Northeast 507 583 28,900 -2,400 Descending FlightAware ADS-B
12:42AM 39.2338 -76.1452 51° Northeast 499 574 27,700 -2,340 Descending FlightAware ADS-B
12:43AM 39.2572 -76.1087 50° Northeast 494 568 27,100 -1,320 Descending FlightAware ADS-B
12:43AM 39.2855 -76.0717 45° Northeast 483 556 27,000 -180 Descending FlightAware ADS-B
12:43AM 39.3353 -76.0130 42° Northeast 483 556 27,000  Level FlightAware ADS-B
12:44AM 39.3851 -75.9542 42° Northeast 481 554 27,000  Level FlightAware ADS-B
12:44AM 39.4359 -75.8942 42° Northeast 482 555 27,000 -300 Level FlightAware ADS-B
12:45AM 39.4853 -75.8358 42° Northeast 477 549 26,700 -1,500 Descending FlightAware ADS-B
12:45AM 39.5360 -75.7757 42° Northeast 473 544 25,500 -2,400 Descending FlightAware ADS-B
12:46AM 39.5842 -75.7184 42° Northeast 469 540 24,300 -2,280 Descending FlightAware ADS-B
12:46AM 39.6324 -75.6612 42° Northeast 464 534 23,200 -2,220 Descending FlightAware ADS-B
12:47AM 39.6793 -75.6057 42° Northeast 456 525 22,100 -2,220 Descending FlightAware ADS-B
12:47AM 39.7255 -75.5502 43° Northeast 450 518 21,000 -2,220 Descending FlightAware ADS-B
12:48AM 39.7708 -75.4955 43° Northeast 443 510 19,900 -2,220 Descending FlightAware ADS-B
12:48AM 39.8155 -75.4412 43° Northeast 435 501 18,800 -2,220 Descending FlightAware ADS-B
12:49AM 39.8593 -75.3881 43° Northeast 427 491 17,700 -2,160 Descending FlightAware ADS-B
12:50AM 39.9051 -75.3327 43° Northeast 416 479 16,600 -2,040 Descending FlightAware ADS-B
12:50AM 39.9469 -75.2821 43° Northeast 408 470 15,600 -2,040 Descending FlightAware ADS-B
12:51AM 39.9881 -75.2319 43° Northeast 401 461 14,600 -2,040 Descending FlightAware ADS-B
12:51AM 40.0309 -75.1800 43° Northeast 395 455 13,500 -2,040 Descending FlightAware ADS-B
12:52AM 40.0708 -75.1315 43° Northeast 387 445 12,500 -1,980 Descending FlightAware ADS-B
12:52AM 40.1104 -75.0831 43° Northeast 378 435 11,500 -1,800 Descending FlightAware ADS-B
12:53AM 40.1486 -75.0363 43° Northeast 365 420 10,700 -1,320 Descending FlightAware ADS-B
12:53AM 40.1845 -74.9919 43° Northeast 337 388 10,200 -840 Descending FlightAware ADS-B
12:53AM 40.2068 -74.9647 43° Northeast 320 368 10,000 -1,020 Descending FlightAware ADS-B
12:54AM 40.2238 -74.9440 43° Northeast 319 367 9,600 -1,500 Descending FlightAware ADS-B
12:54AM 40.2409 -74.9231 43° Northeast 318 366 9,200 -1,500 Descending FlightAware ADS-B
12:54AM 40.2546 -74.9060 44° Northeast 316 364 8,900 -1,500 Descending FlightAware ADS-B
12:54AM 40.2616 -74.8964 46° Northeast 316 364 8,700 -1,860 Descending FlightAware ADS-B
12:55AM 40.2775 -74.8741 47° Northeast 316 364 8,200 -1,140 Descending FlightAware ADS-B
12:55AM 40.2935 -74.8517 47° Northeast 313 360 8,100 -240 Descending FlightAware ADS-B
12:55AM 40.3084 -74.8307 47° Northeast 311 358 8,100  Level FlightAware ADS-B
12:55AM 40.3188 -74.8161 47° Northeast 310 357 8,100  Level FlightAware ADS-B
12:55AM 40.3231 -74.8109 43° Northeast 309 356 8,100 -600 Level FlightAware ADS-B
12:55AM 40.3295 -74.8037 41° Northeast 309 356 8,000 -1,200 Descending FlightAware ADS-B
12:56AM 40.3466 -74.7859 38° Northeast 311 358 7,700 -1,020 Descending FlightAware ADS-B
12:56AM 40.3639 -74.7679 38° Northeast 312 359 7,500 -1,020 Descending FlightAware ADS-B
12:56AM 40.3817 -74.7492 39° Northeast 311 358 7,200 -1,020 Descending FlightAware ADS-B
12:56AM 40.3987 -74.7311 39° Northeast 309 356 7,000 -1,020 Descending FlightAware ADS-B
12:57AM 40.4156 -74.7134 39° Northeast 306 352 6,700 -1,020 Descending FlightAware ADS-B
12:57AM 40.4328 -74.6953 39° Northeast 303 349 6,500 -1,020 Descending FlightAware ADS-B
12:57AM 40.4494 -74.6779 39° Northeast 302 348 6,200 -1,020 Descending FlightAware ADS-B
12:57AM 40.4656 -74.6608 39° Northeast 299 344 6,000 -1,020 Descending FlightAware ADS-B
12:58AM 40.4822 -74.6435 38° Northeast 299 344 5,700 -1,020 Descending FlightAware ADS-B
12:58AM 40.4985 -74.6264 39° Northeast 298 343 5,500 -1,020 Descending FlightAware ADS-B
12:58AM 40.5158 -74.6079 39° Northeast 296 341 5,200 -840 Descending FlightAware ADS-B
12:58AM 40.5300 -74.5927 39° Northeast 293 337 5,100 -240 Descending FlightAware ADS-B
12:59AM 40.5458 -74.5757 39° Northeast 293 337 5,100  Level FlightAware ADS-B
12:59AM 40.5619 -74.5586 39° Northeast 292 336 5,100  Level FlightAware ADS-B
12:59AM 40.5784 -74.5411 39° Northeast 293 337 5,100 -600 Level FlightAware ADS-B
12:59AM 40.5948 -74.5235 39° Northeast 296 341 4,800 -1,200 Descending FlightAware ADS-B
01:00AM 40.6111 -74.5058 39° Northeast 296 341 4,500 -1,020 Descending FlightAware ADS-B
01:00AM 40.6268 -74.4883 40° Northeast 295 339 4,300 -780 Descending FlightAware ADS-B
01:00AM 40.6427 -74.4709 40° Northeast 292 336 4,100 -420 Descending FlightAware ADS-B
01:00AM 40.6586 -74.4534 40° Northeast 290 334 4,100  Level FlightAware ADS-B
01:01AM 40.6743 -74.4363 40° Northeast 289 333 4,100  Level FlightAware ADS-B
01:01AM 40.6901 -74.4191 40° Northeast 288 331 4,100 -240 Level FlightAware ADS-B
01:01AM 40.6997 -74.4080 41° Northeast 288 331 4,000 -600 Descending FlightAware ADS-B
01:01AM 40.7011 -74.4061 46° Northeast 288 331 4,000  Level FlightAware ADS-B
01:01AM 40.7033 -74.4029 48° Northeast 289 333 4,000 -900 Level FlightAware ADS-B
01:01AM 40.7080 -74.3961 48° Northeast 289 333 3,900 -1,020 Descending FlightAware ADS-B
01:02AM 40.7188 -74.3799 49° Northeast 288 331 3,700 -1,140 Descending FlightAware ADS-B
01:02AM 40.7213 -74.3761 49° Northeast 288 331 3,600 -1,080 Descending FlightAware ADS-B
01:02AM 40.7335 -74.3575 49° Northeast 287 330 3,400 -960 Descending FlightAware ADS-B
01:02AM 40.7378 -74.3498 54° Northeast 286 329 3,300 -960 Descending FlightAware ADS-B
01:02AM 40.7432 -74.3387 57° Northeast 287 330 3,200 -540 Descending FlightAware ADS-B
01:02AM 40.7537 -74.3162 58° Northeast 286 329 3,100 -240 Descending FlightAware ADS-B
01:03AM 40.7638 -74.2941 59° Northeast 272 313 3,100  Level FlightAware ADS-B
01:03AM 40.7747 -74.2703 59° Northeast 257 296 3,100  Level FlightAware ADS-B
01:03AM 40.7842 -74.2499 58° Northeast 247 284 3,100 -600 Level FlightAware ADS-B
01:03AM 40.7934 -74.2302 58° Northeast 246 283 2,800 -1,140 Descending FlightAware ADS-B
01:03AM 40.7971 -74.2215 61° Northeast 247 284 2,700 -1,200 Descending FlightAware ADS-B
01:04AM 40.7987 -74.2165 67° East 248 285 2,600 -600 Descending FlightAware ADS-B
01:04AM 40.8008 -74.2075 73° East 249 287 2,600  Level FlightAware ADS-B
01:04AM 40.8048 -74.1849 77° East 248 285 2,600 -480 Level FlightAware ADS-B
01:04AM 40.8072 -74.1666 80° East 245 282 2,400 -780 Descending FlightAware ADS-B
01:04AM 40.8076 -74.1613 84° East 242 278 2,400 -780 Level FlightAware ADS-B
01:04AM 40.8073 -74.1550 94° East 237 273 2,300 -780 Descending FlightAware ADS-B
01:04AM 40.8067 -74.1497 99° East 233 268 2,300  Level FlightAware ADS-B
01:04AM 40.8058 -74.1453 105° East 231 266 2,300 -780 Level FlightAware ADS-B
01:05AM 40.8019 -74.1285 107° East 225 259 2,100 -780 Descending FlightAware ADS-B
01:05AM 40.8003 -74.1235 113° Southeast 221 254 2,100 -900 Level FlightAware ADS-B
01:05AM 40.7988 -74.1197 118° Southeast 218 251 2,000 -900 Descending FlightAware ADS-B
01:05AM 40.7968 -74.1161 126° Southeast 214 246 2,000 -900 Level FlightAware ADS-B
01:05AM 40.7944 -74.1130 136° Southeast 209 241 1,900 -900 Descending FlightAware ADS-B
01:05AM 40.7920 -74.1108 145° Southeast 205 236 1,900 -600 Level FlightAware ADS-B
01:05AM 40.7860 -74.1080 161° South 198 228 1,800 -840 Descending FlightAware ADS-B
01:05AM 40.7785 -74.1087 184° South 187 215 1,700 -960 Descending FlightAware ADS-B
01:05AM 40.7758 -74.1102 203° Southwest 177 204 1,600 -600 Descending FlightAware ADS-B
01:05AM 40.7720 -74.1131 210° Southwest 170 196 1,600 -600 Level FlightAware ADS-B
01:05AM 40.7684 -74.1158 210° Southwest 163 188 1,500 -600 Descending FlightAware ADS-B
01:06AM 40.7578 -74.1234 209° Southwest 155 178 1,400 -480 Descending FlightAware ADS-B
01:06AM 40.7525 -74.1270 207° Southwest 147 169 1,300 -840 Descending FlightAware ADS-B
01:06AM 40.7485 -74.1293 204° Southwest 141 162 1,200 -900 Descending FlightAware ADS-B
01:06AM 40.7407 -74.1342 205° Southwest 132 152 1,000 -420 Descending FlightAware ADS-B
01:07AM 40.7190 -74.1480 206° Southwest 133 153 800 -720 Descending FlightAware
01:07AM 40.7013 -74.1592 206° Southwest 144 166 200 -1,500 Descending FlightAware ADS-B